createdAt,value
2019-03-01T00:03:40.314Z,19.00
2019-03-01T00:09:55.001Z,18.13
2019-03-01T00:16:16.212Z,15.03
2019-03-01T00:22:28.545Z,17.83
2019-03-01T00:28:49.568Z,17.27
2019-03-01T00:35:16.775Z,16.80
2019-03-01T00:41:48.486Z,17.97
2019-03-01T00:47:53.145Z,17.13
2019-03-01T00:53:57.874Z,16.97
2019-03-01T01:00:02.609Z,18.80
2019-03-01T01:06:07.202Z,16.60
2019-03-01T01:12:11.918Z,18.77
2019-03-01T01:18:16.508Z,16.67
2019-03-01T01:24:21.073Z,18.27
2019-03-01T01:30:25.632Z,17.47
2019-03-01T01:36:31.140Z,16.50
2019-03-01T01:42:35.706Z,19.97
2019-03-01T01:48:40.262Z,21.33
2019-03-01T01:54:44.862Z,24.07
2019-03-01T02:00:49.582Z,22.90
2019-03-01T02:06:54.199Z,23.37
2019-03-01T02:13:00.021Z,23.43
2019-03-01T02:19:04.652Z,24.10
2019-03-01T02:25:13.450Z,24.73
2019-03-01T02:31:18.922Z,23.63
2019-03-01T02:37:23.524Z,23.83
2019-03-01T02:43:28.363Z,22.60
2019-03-01T02:49:33.298Z,21.30
2019-03-01T02:55:37.856Z,22.50
2019-03-01T03:01:42.417Z,20.03
2019-03-01T03:07:54.564Z,20.40
2019-03-01T03:13:59.257Z,19.40
2019-03-01T03:20:04.593Z,17.20
2019-03-01T03:26:09.465Z,15.73
2019-03-01T03:32:14.188Z,15.57
2019-03-01T03:38:18.834Z,13.97
2019-03-01T03:44:23.473Z,15.60
2019-03-01T03:50:28.829Z,15.07
2019-03-01T03:56:34.019Z,13.53
2019-03-01T04:02:38.897Z,14.60
2019-03-01T04:08:43.600Z,14.57
2019-03-01T04:14:48.284Z,12.87
2019-03-01T04:20:52.946Z,12.47
2019-03-01T04:26:57.545Z,12.37
2019-03-01T04:33:02.364Z,12.10
2019-03-01T04:39:08.508Z,11.73
2019-03-01T04:45:16.088Z,12.20
2019-03-01T04:51:20.737Z,12.60
2019-03-01T04:57:25.442Z,10.47
2019-03-01T05:03:30.029Z,13.10
2019-03-01T05:09:34.606Z,12.37
2019-03-01T05:15:39.168Z,12.63
2019-03-01T05:21:43.751Z,13.37
2019-03-01T05:27:48.321Z,12.67
2019-03-01T05:33:52.879Z,13.00
2019-03-01T05:39:57.524Z,13.27
2019-03-01T05:46:02.128Z,14.57
2019-03-01T05:52:06.762Z,14.97
2019-03-01T05:58:32.976Z,14.90
2019-03-01T06:04:48.208Z,14.57
2019-03-01T06:10:57.838Z,15.67
2019-03-01T06:17:36.696Z,15.80
2019-03-01T06:23:57.687Z,15.23
2019-03-01T06:30:38.567Z,15.33
2019-03-01T06:37:03.006Z,13.93
2019-03-01T06:43:18.176Z,14.30
2019-03-01T06:49:24.493Z,14.53
2019-03-01T06:55:36.700Z,15.43
2019-03-01T07:01:42.006Z,13.73
2019-03-01T07:07:46.577Z,15.57
2019-03-01T07:13:51.145Z,14.60
2019-03-01T07:19:55.702Z,13.70
2019-03-01T07:26:00.745Z,14.17
2019-03-01T07:32:05.320Z,13.80
2019-03-01T07:38:09.872Z,14.83
2019-03-01T07:44:14.435Z,13.23
2019-03-01T07:50:19.091Z,13.37
2019-03-01T07:56:23.709Z,15.50
2019-03-01T08:02:29.826Z,13.80
2019-03-01T08:08:34.811Z,14.20
2019-03-01T08:14:40.681Z,13.57
2019-03-01T08:20:45.330Z,12.93
2019-03-01T08:26:49.945Z,12.63
2019-03-01T08:32:54.600Z,12.70
2019-03-01T08:39:00.816Z,12.03
2019-03-01T08:45:10.133Z,12.37
2019-03-01T08:51:14.821Z,13.43
2019-03-01T08:57:22.579Z,12.40
2019-03-01T09:03:36.271Z,10.77
2019-03-01T09:09:40.815Z,12.50
2019-03-01T09:15:46.175Z,12.30
2019-03-01T09:21:52.034Z,13.00
2019-03-01T09:27:57.635Z,12.50
2019-03-01T09:34:02.537Z,12.50
2019-03-01T09:40:07.907Z,13.07
2019-03-01T09:46:12.534Z,13.20
2019-03-01T09:52:17.112Z,12.37
2019-03-01T09:58:22.067Z,13.73
2019-03-01T10:04:26.640Z,13.70
2019-03-01T10:10:34.320Z,13.83
2019-03-01T10:16:38.963Z,15.50
2019-03-01T10:22:43.610Z,15.80
2019-03-01T10:28:48.245Z,15.60
2019-03-01T10:34:52.876Z,16.80
2019-03-01T10:40:57.576Z,16.00
2019-03-01T10:47:02.284Z,15.70
2019-03-01T10:53:07.046Z,15.30
2019-03-01T10:59:11.681Z,12.60
2019-03-01T11:05:16.393Z,13.07
2019-03-01T11:11:21.110Z,13.70
2019-03-01T11:17:25.680Z,14.37
2019-03-01T11:23:30.407Z,13.50
2019-03-01T11:29:35.121Z,13.77
2019-03-01T11:35:39.743Z,16.33
2019-03-01T11:41:46.867Z,17.50
2019-03-01T11:47:51.526Z,18.50
2019-03-01T11:53:56.119Z,18.00
2019-03-01T12:00:01.059Z,17.97
2019-03-01T12:06:05.695Z,20.23
2019-03-01T12:12:10.264Z,22.40
2019-03-01T12:18:14.818Z,24.97
2019-03-01T12:24:19.389Z,25.90
2019-03-01T12:30:28.203Z,25.43
2019-03-01T12:36:32.904Z,28.50
2019-03-01T12:42:37.489Z,27.73
2019-03-01T12:48:42.061Z,29.87
2019-03-01T12:54:46.703Z,27.83
2019-03-01T13:00:51.282Z,31.23
2019-03-01T13:06:55.853Z,28.47
2019-03-01T13:13:02.059Z,29.83
2019-03-01T13:19:06.932Z,31.80
2019-03-01T13:25:12.522Z,32.90
2019-03-01T13:31:17.071Z,31.57
2019-03-01T13:37:21.655Z,30.63
2019-03-01T13:43:27.349Z,31.50
2019-03-01T13:49:32.678Z,36.07
2019-03-01T13:55:37.242Z,33.87
2019-03-01T14:01:42.173Z,35.10
2019-03-01T14:07:48.081Z,34.67
2019-03-01T14:13:52.639Z,31.87
2019-03-01T14:19:57.613Z,31.20
2019-03-01T14:26:02.296Z,29.63
2019-03-01T14:32:07.851Z,30.03
2019-03-01T14:38:12.422Z,31.83
2019-03-01T14:44:17.044Z,30.07
2019-03-01T14:50:24.363Z,31.73
2019-03-01T14:56:34.724Z,31.10
2019-03-01T15:02:56.287Z,30.87
2019-03-01T15:09:01.019Z,39.10
2019-03-01T15:15:10.480Z,30.03
2019-03-01T15:21:15.886Z,29.83
2019-03-01T15:27:20.467Z,33.27
2019-03-01T15:33:25.029Z,29.27
2019-03-01T15:39:29.947Z,23.83
2019-03-01T15:45:36.722Z,32.43
2019-03-01T15:51:41.401Z,30.90
2019-03-01T15:57:45.976Z,28.70
2019-03-01T16:03:50.682Z,28.40
2019-03-01T16:09:58.296Z,25.00
2019-03-01T16:16:02.015Z,26.47
2019-03-01T16:22:06.711Z,25.93
2019-03-01T16:28:11.440Z,27.33
2019-03-01T16:34:17.391Z,23.90
2019-03-01T16:40:22.089Z,18.17
2019-03-01T16:46:28.466Z,26.40
2019-03-01T16:52:33.105Z,24.63
2019-03-01T16:58:37.688Z,22.77
2019-03-01T17:04:42.255Z,22.47
2019-03-01T17:10:46.837Z,23.90
2019-03-01T17:16:51.418Z,20.13
2019-03-01T17:22:55.995Z,19.63
2019-03-01T17:29:03.085Z,19.70
2019-03-01T17:35:10.994Z,19.07
2019-03-01T17:41:15.633Z,20.30
2019-03-01T17:47:20.255Z,19.20
2019-03-01T17:53:24.922Z,18.70
2019-03-01T17:59:30.074Z,16.83
2019-03-01T18:05:37.053Z,18.20
2019-03-01T18:11:44.564Z,19.60
2019-03-01T18:17:47.459Z,17.20
2019-03-01T18:23:52.179Z,17.90
2019-03-01T18:29:56.901Z,16.20
2019-03-01T18:36:01.517Z,16.80
2019-03-01T18:42:06.162Z,14.50
2019-03-01T18:48:10.862Z,13.67
2019-03-01T18:54:15.447Z,11.73
2019-03-01T19:00:35.673Z,15.63
2019-03-01T19:06:39.448Z,12.83
2019-03-01T19:12:44.828Z,11.40
2019-03-01T19:18:51.286Z,10.53
2019-03-01T19:24:56.806Z,9.90
2019-03-01T19:31:01.866Z,11.00
2019-03-01T19:37:06.445Z,10.30
2019-03-01T19:43:11.151Z,9.83
2019-03-01T19:49:15.691Z,10.37
2019-03-01T19:55:20.488Z,8.97
2019-03-01T20:01:25.396Z,8.83
2019-03-01T20:07:30.534Z,9.10
2019-03-01T20:13:35.245Z,10.17
2019-03-01T20:19:39.834Z,7.83
2019-03-01T20:25:47.560Z,10.10
2019-03-01T20:31:50.881Z,10.13
2019-03-01T20:37:55.573Z,10.87
2019-03-01T20:44:01.146Z,12.10
2019-03-01T20:50:11.904Z,9.43
2019-03-01T20:56:16.987Z,9.17
2019-03-01T21:02:21.853Z,10.80
2019-03-01T21:08:29.066Z,11.77
2019-03-01T21:14:33.050Z,13.07
2019-03-01T21:20:37.980Z,9.47
2019-03-01T21:26:42.550Z,9.40
2019-03-01T21:32:50.728Z,10.70
2019-03-01T21:38:53.382Z,10.60
2019-03-01T21:44:58.084Z,9.40
2019-03-01T21:51:03.371Z,14.80
2019-03-01T21:57:07.950Z,13.10
2019-03-01T22:03:12.582Z,14.27
2019-03-01T22:09:20.612Z,11.23
2019-03-01T22:15:29.377Z,10.00
2019-03-01T22:21:34.273Z,19.00
2019-03-01T22:27:38.869Z,15.63
2019-03-01T22:33:43.439Z,13.20
2019-03-01T22:39:51.481Z,11.43
2019-03-01T22:45:55.054Z,12.50
2019-03-01T22:51:59.877Z,10.93
2019-03-01T22:58:05.681Z,9.43
2019-03-01T23:04:11.169Z,9.93
2019-03-01T23:10:18.442Z,9.30
2019-03-01T23:16:22.252Z,10.90
2019-03-01T23:22:26.830Z,9.27
2019-03-01T23:28:31.810Z,11.57
2019-03-01T23:34:38.927Z,9.83
2019-03-01T23:40:42.664Z,9.00
2019-03-01T23:46:47.282Z,10.50
2019-03-01T23:52:54.948Z,9.93
2019-03-01T23:58:59.747Z,8.40
